sensor_id;sensor_type;location;lat;lon;timestamp;pressure;altitude;pressure_sealevel;temperature;humidity
33286;BME280;19656;50.096;20.014;2023-04-19T00:02:14;99175.80;;;13.03;68.08
33286;BME280;19656;50.096;20.014;2023-04-19T00:07:19;99171.11;;;13.01;68.19
33286;BME280;19656;50.096;20.014;2023-04-19T00:12:22;99165.44;;;12.98;68.29
33286;BME280;19656;50.096;20.014;2023-04-19T00:17:25;99162.90;;;12.97;68.48
33286;BME280;19656;50.096;20.014;2023-04-19T00:22:29;99156.86;;;12.94;68.57
33286;BME280;19656;50.096;20.014;2023-04-19T00:27:32;99154.80;;;12.93;68.81
33286;BME280;19656;50.096;20.014;2023-04-19T00:32:35;99148.17;;;12.96;68.82
33286;BME280;19656;50.096;20.014;2023-04-19T00:37:38;99142.79;;;12.99;69.08
33286;BME280;19656;50.096;20.014;2023-04-19T00:42:41;99134.59;;;12.99;69.22
33286;BME280;19656;50.096;20.014;2023-04-19T00:47:46;99130.51;;;12.96;69.30
33286;BME280;19656;50.096;20.014;2023-04-19T00:52:50;99124.10;;;12.91;69.48
33286;BME280;19656;50.096;20.014;2023-04-19T00:57:55;99122.16;;;12.86;69.61
33286;BME280;19656;50.096;20.014;2023-04-19T01:02:59;99113.95;;;12.81;69.97
33286;BME280;19656;50.096;20.014;2023-04-19T01:08:03;99104.34;;;12.76;70.22
33286;BME280;19656;50.096;20.014;2023-04-19T01:13:06;99105.27;;;12.75;70.15
33286;BME280;19656;50.096;20.014;2023-04-19T01:18:12;99100.00;;;12.67;70.22
33286;BME280;19656;50.096;20.014;2023-04-19T01:23:17;99093.23;;;12.64;70.20
33286;BME280;19656;50.096;20.014;2023-04-19T01:28:20;99088.43;;;12.62;70.26
33286;BME280;19656;50.096;20.014;2023-04-19T01:33:24;99085.42;;;12.54;70.34
33286;BME280;19656;50.096;20.014;2023-04-19T01:38:28;99085.56;;;12.54;70.33
33286;BME280;19656;50.096;20.014;2023-04-19T01:43:31;99082.60;;;12.53;70.42
33286;BME280;19656;50.096;20.014;2023-04-19T01:48:36;99073.09;;;12.49;70.40
33286;BME280;19656;50.096;20.014;2023-04-19T01:53:40;99066.24;;;12.53;70.63
33286;BME280;19656;50.096;20.014;2023-04-19T01:58:43;99060.20;;;12.58;70.39
33286;BME280;19656;50.096;20.014;2023-04-19T02:03:46;99056.42;;;12.56;70.20
33286;BME280;19656;50.096;20.014;2023-04-19T02:08:50;99047.40;;;12.50;69.80
33286;BME280;19656;50.096;20.014;2023-04-19T02:13:53;99044.76;;;12.47;69.61
33286;BME280;19656;50.096;20.014;2023-04-19T02:18:56;99034.52;;;12.46;69.49
33286;BME280;19656;50.096;20.014;2023-04-19T02:23:59;99034.01;;;12.41;69.27
33286;BME280;19656;50.096;20.014;2023-04-19T02:29:03;99033.06;;;12.37;69.15
33286;BME280;19656;50.096;20.014;2023-04-19T02:34:08;99027.69;;;12.37;68.99
33286;BME280;19656;50.096;20.014;2023-04-19T02:39:12;99027.05;;;12.39;68.85
33286;BME280;19656;50.096;20.014;2023-04-19T02:44:15;99021.16;;;12.36;68.87
33286;BME280;19656;50.096;20.014;2023-04-19T02:49:19;99019.01;;;12.31;68.94
33286;BME280;19656;50.096;20.014;2023-04-19T02:54:22;99016.23;;;12.30;69.06
33286;BME280;19656;50.096;20.014;2023-04-19T02:59:26;99018.46;;;12.29;69.17
33286;BME280;19656;50.096;20.014;2023-04-19T03:04:30;99016.10;;;12.22;69.14
33286;BME280;19656;50.096;20.014;2023-04-19T03:09:33;99010.59;;;12.14;69.10
33286;BME280;19656;50.096;20.014;2023-04-19T03:14:38;99000.26;;;12.09;69.10
33286;BME280;19656;50.096;20.014;2023-04-19T03:19:41;98998.77;;;12.05;68.79
33286;BME280;19656;50.096;20.014;2023-04-19T03:24:45;98992.34;;;12.05;68.70
33286;BME280;19656;50.096;20.014;2023-04-19T03:29:56;98987.31;;;12.06;68.79
33286;BME280;19656;50.096;20.014;2023-04-19T03:35:00;98981.07;;;12.01;68.31
33286;BME280;19656;50.096;20.014;2023-04-19T03:40:04;98977.89;;;11.98;68.38
33286;BME280;19656;50.096;20.014;2023-04-19T03:45:09;98967.94;;;11.93;68.35
33286;BME280;19656;50.096;20.014;2023-04-19T03:50:15;98968.60;;;11.86;67.96
33286;BME280;19656;50.096;20.014;2023-04-19T03:55:20;98964.10;;;11.81;68.13
33286;BME280;19656;50.096;20.014;2023-04-19T04:00:23;98965.23;;;11.75;68.00
33286;BME280;19656;50.096;20.014;2023-04-19T04:05:30;98962.46;;;11.71;68.26
33286;BME280;19656;50.096;20.014;2023-04-19T04:10:34;98958.23;;;11.68;67.99
33286;BME280;19656;50.096;20.014;2023-04-19T04:15:38;98955.97;;;11.68;68.04
33286;BME280;19656;50.096;20.014;2023-04-19T04:20:42;98951.35;;;11.70;67.94
33286;BME280;19656;50.096;20.014;2023-04-19T04:25:46;98951.77;;;11.69;67.84
33286;BME280;19656;50.096;20.014;2023-04-19T04:30:49;98953.23;;;11.69;68.01
33286;BME280;19656;50.096;20.014;2023-04-19T04:35:54;98958.11;;;11.70;68.03
33286;BME280;19656;50.096;20.014;2023-04-19T04:40:58;98953.61;;;11.71;68.06
33286;BME280;19656;50.096;20.014;2023-04-19T04:46:02;98950.79;;;11.71;68.10
33286;BME280;19656;50.096;20.014;2023-04-19T04:51:09;98945.36;;;11.69;68.16
33286;BME280;19656;50.096;20.014;2023-04-19T04:56:13;98944.03;;;11.73;68.12
33286;BME280;19656;50.096;20.014;2023-04-19T05:01:17;98937.81;;;11.78;67.86
33286;BME280;19656;50.096;20.014;2023-04-19T05:06:22;98934.46;;;11.86;67.77
33286;BME280;19656;50.096;20.014;2023-04-19T05:11:25;98926.94;;;11.92;67.62
33286;BME280;19656;50.096;20.014;2023-04-19T05:16:29;98923.04;;;11.95;67.58
33286;BME280;19656;50.096;20.014;2023-04-19T05:21:33;98926.48;;;11.94;67.75
33286;BME280;19656;50.096;20.014;2023-04-19T05:26:37;98930.27;;;11.95;67.79
33286;BME280;19656;50.096;20.014;2023-04-19T05:31:41;98934.93;;;11.90;67.81
33286;BME280;19656;50.096;20.014;2023-04-19T05:36:51;98938.70;;;11.87;68.12
33286;BME280;19656;50.096;20.014;2023-04-19T05:41:54;98944.41;;;11.83;67.93
33286;BME280;19656;50.096;20.014;2023-04-19T05:46:57;98946.71;;;11.78;68.14
33286;BME280;19656;50.096;20.014;2023-04-19T05:52:27;98947.79;;;11.76;68.16
33286;BME280;19656;50.096;20.014;2023-04-19T05:57:32;98951.27;;;11.82;68.44
33286;BME280;19656;50.096;20.014;2023-04-19T06:02:35;98950.52;;;11.91;68.32
33286;BME280;19656;50.096;20.014;2023-04-19T06:07:39;98944.23;;;12.02;68.26
33286;BME280;19656;50.096;20.014;2023-04-19T06:12:58;98935.79;;;12.08;68.01
33286;BME280;19656;50.096;20.014;2023-04-19T06:18:01;98939.31;;;12.11;67.91
33286;BME280;19656;50.096;20.014;2023-04-19T06:23:04;98943.58;;;12.16;67.41
33286;BME280;19656;50.096;20.014;2023-04-19T06:28:07;98940.82;;;12.23;67.18
33286;BME280;19656;50.096;20.014;2023-04-19T06:33:11;98939.09;;;12.29;66.82
33286;BME280;19656;50.096;20.014;2023-04-19T06:38:14;98941.70;;;12.27;66.74
33286;BME280;19656;50.096;20.014;2023-04-19T06:43:16;98944.42;;;12.29;66.56
33286;BME280;19656;50.096;20.014;2023-04-19T06:48:20;98945.85;;;12.27;66.22
33286;BME280;19656;50.096;20.014;2023-04-19T06:53:23;98944.59;;;12.22;66.19
33286;BME280;19656;50.096;20.014;2023-04-19T06:58:27;98941.67;;;12.18;66.00
33286;BME280;19656;50.096;20.014;2023-04-19T07:03:30;98944.23;;;12.17;66.11
33286;BME280;19656;50.096;20.014;2023-04-19T07:08:33;98947.89;;;12.21;66.01
33286;BME280;19656;50.096;20.014;2023-04-19T07:13:51;98950.58;;;12.20;66.06
33286;BME280;19656;50.096;20.014;2023-04-19T07:18:54;98951.45;;;12.21;65.78
33286;BME280;19656;50.096;20.014;2023-04-19T07:23:58;98952.86;;;12.16;65.55
33286;BME280;19656;50.096;20.014;2023-04-19T07:29:01;98954.40;;;12.06;65.47
33286;BME280;19656;50.096;20.014;2023-04-19T07:34:06;98951.89;;;11.99;64.86
33286;BME280;19656;50.096;20.014;2023-04-19T07:39:11;98950.50;;;11.91;64.46
33286;BME280;19656;50.096;20.014;2023-04-19T07:44:15;98953.32;;;11.83;64.31
33286;BME280;19656;50.096;20.014;2023-04-19T07:49:26;98958.36;;;11.77;64.02
33286;BME280;19656;50.096;20.014;2023-04-19T07:54:35;98962.17;;;11.65;63.96
33286;BME280;19656;50.096;20.014;2023-04-19T07:59:41;98968.05;;;11.59;63.90
33286;BME280;19656;50.096;20.014;2023-04-19T08:04:44;98966.30;;;11.51;63.59
33286;BME280;19656;50.096;20.014;2023-04-19T08:09:50;98967.86;;;11.49;63.82
33286;BME280;19656;50.096;20.014;2023-04-19T08:14:53;98966.96;;;11.47;63.96
33286;BME280;19656;50.096;20.014;2023-04-19T08:20:19;98967.94;;;11.50;64.09
33286;BME280;19656;50.096;20.014;2023-04-19T08:25:23;98968.42;;;11.59;63.77
33286;BME280;19656;50.096;20.014;2023-04-19T08:30:32;98967.30;;;11.63;63.63
33286;BME280;19656;50.096;20.014;2023-04-19T08:35:40;98965.11;;;11.61;63.18
33286;BME280;19656;50.096;20.014;2023-04-19T08:40:51;98966.77;;;11.57;63.24
33286;BME280;19656;50.096;20.014;2023-04-19T08:45:54;98969.21;;;11.55;63.38
33286;BME280;19656;50.096;20.014;2023-04-19T08:50:59;98969.77;;;11.53;63.56
33286;BME280;19656;50.096;20.014;2023-04-19T08:56:10;98976.27;;;11.48;63.57
33286;BME280;19656;50.096;20.014;2023-04-19T09:01:29;98972.09;;;11.50;63.83
33286;BME280;19656;50.096;20.014;2023-04-19T09:06:39;98977.59;;;11.50;63.44
33286;BME280;19656;50.096;20.014;2023-04-19T09:11:43;98977.66;;;11.54;63.59
33286;BME280;19656;50.096;20.014;2023-04-19T09:16:47;98980.84;;;11.54;63.54
33286;BME280;19656;50.096;20.014;2023-04-19T09:21:50;98981.19;;;11.52;63.61
33286;BME280;19656;50.096;20.014;2023-04-19T09:26:54;98980.70;;;11.48;63.60
33286;BME280;19656;50.096;20.014;2023-04-19T10:27:45;98982.50;;;11.21;65.25
33286;BME280;19656;50.096;20.014;2023-04-19T10:32:54;98980.79;;;11.28;65.26
33286;BME280;19656;50.096;20.014;2023-04-19T10:43:13;98980.55;;;11.46;65.23
33286;BME280;19656;50.096;20.014;2023-04-19T10:53:46;98982.25;;;11.52;65.14
33286;BME280;19656;50.096;20.014;2023-04-19T11:04:20;98979.05;;;11.54;65.20
33286;BME280;19656;50.096;20.014;2023-04-19T11:09:33;98984.24;;;11.56;65.54
33286;BME280;19656;50.096;20.014;2023-04-19T11:14:39;98981.23;;;11.59;65.57
33286;BME280;19656;50.096;20.014;2023-04-19T11:19:57;98976.90;;;11.65;65.82
33286;BME280;19656;50.096;20.014;2023-04-19T11:30:28;98964.15;;;11.89;66.14
33286;BME280;19656;50.096;20.014;2023-04-19T11:35:33;98962.50;;;12.10;65.93
33286;BME280;19656;50.096;20.014;2023-04-19T11:40:36;98963.38;;;12.23;65.57
33286;BME280;19656;50.096;20.014;2023-04-19T11:45:40;98964.92;;;12.34;65.42
33286;BME280;19656;50.096;20.014;2023-04-19T11:50:44;98965.85;;;12.44;64.97
33286;BME280;19656;50.096;20.014;2023-04-19T11:55:53;98967.77;;;12.46;64.68
33286;BME280;19656;50.096;20.014;2023-04-19T12:01:03;98973.33;;;12.43;64.26
33286;BME280;19656;50.096;20.014;2023-04-19T12:06:16;98976.72;;;12.31;64.43
33286;BME280;19656;50.096;20.014;2023-04-19T12:11:24;98978.95;;;12.19;64.65
33286;BME280;19656;50.096;20.014;2023-04-19T12:16:28;98988.09;;;12.08;64.86
33286;BME280;19656;50.096;20.014;2023-04-19T12:25:28;98992.19;;;11.92;65.45
33286;BME280;19656;50.096;20.014;2023-04-19T12:30:34;98991.46;;;11.87;65.85
33286;BME280;19656;50.096;20.014;2023-04-19T12:35:38;98989.72;;;11.89;65.83
33286;BME280;19656;50.096;20.014;2023-04-19T12:40:43;98990.31;;;11.86;65.81
33286;BME280;19656;50.096;20.014;2023-04-19T12:45:46;98986.60;;;11.98;66.04
33286;BME280;19656;50.096;20.014;2023-04-19T12:50:49;98986.81;;;12.11;65.73
33286;BME280;19656;50.096;20.014;2023-04-19T12:55:52;98982.98;;;12.25;65.09
33286;BME280;19656;50.096;20.014;2023-04-19T13:00:55;98982.25;;;12.23;64.82
33286;BME280;19656;50.096;20.014;2023-04-19T13:05:58;98982.96;;;12.23;64.36
33286;BME280;19656;50.096;20.014;2023-04-19T13:25:24;98983.94;;;12.26;64.74
33286;BME280;19656;50.096;20.014;2023-04-19T13:30:28;98983.72;;;12.30;64.34
33286;BME280;19656;50.096;20.014;2023-04-19T13:35:32;98985.35;;;12.39;64.25
33286;BME280;19656;50.096;20.014;2023-04-19T13:40:35;98987.60;;;12.48;64.13
33286;BME280;19656;50.096;20.014;2023-04-19T13:45:38;98984.67;;;12.52;63.82
33286;BME280;19656;50.096;20.014;2023-04-19T13:50:41;98979.73;;;12.61;63.62
33286;BME280;19656;50.096;20.014;2023-04-19T13:55:44;98974.55;;;12.69;63.59
33286;BME280;19656;50.096;20.014;2023-04-19T14:00:49;98966.85;;;12.77;63.32
33286;BME280;19656;50.096;20.014;2023-04-19T14:05:53;98969.77;;;12.86;62.96
33286;BME280;19656;50.096;20.014;2023-04-19T14:10:57;98972.40;;;12.84;62.08
33286;BME280;19656;50.096;20.014;2023-04-19T14:16:01;98967.46;;;12.95;62.81
33286;BME280;19656;50.096;20.014;2023-04-19T14:21:04;98972.34;;;13.09;62.36
33286;BME280;19656;50.096;20.014;2023-04-19T14:26:07;98972.97;;;13.10;62.34
33286;BME280;19656;50.096;20.014;2023-04-19T14:31:10;98972.21;;;13.11;62.47
33286;BME280;19656;50.096;20.014;2023-04-19T14:36:27;98972.14;;;13.12;62.42
33286;BME280;19656;50.096;20.014;2023-04-19T14:41:38;98968.22;;;13.21;62.40
33286;BME280;19656;50.096;20.014;2023-04-19T14:46:41;98970.04;;;13.36;62.38
33286;BME280;19656;50.096;20.014;2023-04-19T14:51:44;98967.72;;;13.33;62.03
33286;BME280;19656;50.096;20.014;2023-04-19T14:56:48;98967.83;;;13.32;62.43
33286;BME280;19656;50.096;20.014;2023-04-19T15:01:52;98974.16;;;13.40;62.36
33286;BME280;19656;50.096;20.014;2023-04-19T15:06:55;98981.26;;;13.50;62.03
33286;BME280;19656;50.096;20.014;2023-04-19T15:11:59;98979.20;;;13.56;61.69
33286;BME280;19656;50.096;20.014;2023-04-19T15:17:04;98984.15;;;13.47;61.40
33286;BME280;19656;50.096;20.014;2023-04-19T15:22:07;98991.70;;;13.32;61.16
33286;BME280;19656;50.096;20.014;2023-04-19T15:27:11;98996.27;;;13.16;61.71
33286;BME280;19656;50.096;20.014;2023-04-19T15:32:15;98997.09;;;13.02;61.95
33286;BME280;19656;50.096;20.014;2023-04-19T15:37:18;99004.13;;;12.86;62.18
33286;BME280;19656;50.096;20.014;2023-04-19T15:42:22;99009.88;;;12.72;62.47
33286;BME280;19656;50.096;20.014;2023-04-19T15:47:26;99016.23;;;12.61;62.86
33286;BME280;19656;50.096;20.014;2023-04-19T15:52:29;99015.70;;;12.53;63.02
33286;BME280;19656;50.096;20.014;2023-04-19T15:57:34;99020.23;;;12.44;63.52
33286;BME280;19656;50.096;20.014;2023-04-19T16:02:38;99020.29;;;12.36;63.75
33286;BME280;19656;50.096;20.014;2023-04-19T16:07:43;99024.58;;;12.30;63.87
33286;BME280;19656;50.096;20.014;2023-04-19T16:12:47;99023.34;;;12.33;63.97
33286;BME280;19656;50.096;20.014;2023-04-19T16:17:53;99026.83;;;12.42;64.11
33286;BME280;19656;50.096;20.014;2023-04-19T16:22:58;99030.58;;;12.46;63.68
33286;BME280;19656;50.096;20.014;2023-04-19T16:28:04;99036.41;;;12.42;63.56
33286;BME280;19656;50.096;20.014;2023-04-19T16:33:09;99035.74;;;12.36;63.54
33286;BME280;19656;50.096;20.014;2023-04-19T16:38:14;99034.98;;;12.34;63.74
33286;BME280;19656;50.096;20.014;2023-04-19T16:43:18;99040.92;;;12.26;64.00
33286;BME280;19656;50.096;20.014;2023-04-19T16:48:23;99040.65;;;12.19;64.27
33286;BME280;19656;50.096;20.014;2023-04-19T16:53:29;99045.58;;;12.09;64.14
33286;BME280;19656;50.096;20.014;2023-04-19T16:58:33;99049.15;;;12.04;64.46
33286;BME280;19656;50.096;20.014;2023-04-19T17:03:37;99051.02;;;11.98;64.60
33286;BME280;19656;50.096;20.014;2023-04-19T17:08:41;99050.02;;;11.92;64.69
33286;BME280;19656;50.096;20.014;2023-04-19T17:13:45;99060.56;;;11.88;64.93
33286;BME280;19656;50.096;20.014;2023-04-19T17:18:49;99060.95;;;11.85;64.79
33286;BME280;19656;50.096;20.014;2023-04-19T17:23:54;99065.69;;;11.82;65.07
33286;BME280;19656;50.096;20.014;2023-04-19T17:28:59;99070.58;;;11.84;65.36
33286;BME280;19656;50.096;20.014;2023-04-19T17:34:04;99073.95;;;11.92;65.14
33286;BME280;19656;50.096;20.014;2023-04-19T17:39:08;99078.77;;;11.97;64.89
33286;BME280;19656;50.096;20.014;2023-04-19T17:44:12;99080.98;;;11.88;64.82
33286;BME280;19656;50.096;20.014;2023-04-19T17:49:18;99088.72;;;11.84;65.25
33286;BME280;19656;50.096;20.014;2023-04-19T17:54:23;99098.14;;;11.78;65.51
33286;BME280;19656;50.096;20.014;2023-04-19T17:59:31;99102.94;;;11.76;65.90
33286;BME280;19656;50.096;20.014;2023-04-19T18:04:36;99106.97;;;11.88;66.88
33286;BME280;19656;50.096;20.014;2023-04-19T18:09:41;99111.50;;;11.92;65.83
33286;BME280;19656;50.096;20.014;2023-04-19T18:14:45;99113.00;;;11.82;65.88
33286;BME280;19656;50.096;20.014;2023-04-19T18:19:48;99117.16;;;11.76;65.85
33286;BME280;19656;50.096;20.014;2023-04-19T18:24:52;99126.35;;;11.68;65.89
33286;BME280;19656;50.096;20.014;2023-04-19T18:29:57;99131.55;;;11.65;65.94
33286;BME280;19656;50.096;20.014;2023-04-19T18:35:01;99139.77;;;11.64;66.13
33286;BME280;19656;50.096;20.014;2023-04-19T18:40:12;99142.48;;;11.66;66.29
33286;BME280;19656;50.096;20.014;2023-04-19T18:45:16;99143.76;;;11.69;66.13
33286;BME280;19656;50.096;20.014;2023-04-19T18:50:21;99145.72;;;11.68;66.21
33286;BME280;19656;50.096;20.014;2023-04-19T18:55:25;99147.73;;;11.67;66.85
33286;BME280;19656;50.096;20.014;2023-04-19T19:00:28;99147.27;;;11.77;67.09
33286;BME280;19656;50.096;20.014;2023-04-19T19:05:32;99148.58;;;11.74;66.17
33286;BME280;19656;50.096;20.014;2023-04-19T19:10:35;99149.77;;;11.63;66.06
33286;BME280;19656;50.096;20.014;2023-04-19T19:15:46;99148.63;;;11.50;66.22
33286;BME280;19656;50.096;20.014;2023-04-19T19:20:50;99151.13;;;11.45;66.72
33286;BME280;19656;50.096;20.014;2023-04-19T19:25:54;99152.59;;;11.50;67.21
33286;BME280;19656;50.096;20.014;2023-04-19T19:31:00;99152.70;;;11.43;66.34
33286;BME280;19656;50.096;20.014;2023-04-19T19:36:04;99154.22;;;11.36;66.21
33286;BME280;19656;50.096;20.014;2023-04-19T19:41:08;99158.63;;;11.33;66.48
33286;BME280;19656;50.096;20.014;2023-04-19T19:46:33;99161.77;;;11.28;66.44
33286;BME280;19656;50.096;20.014;2023-04-19T19:51:40;99167.36;;;11.24;66.49
33286;BME280;19656;50.096;20.014;2023-04-19T19:57:01;99168.23;;;11.16;66.51
33286;BME280;19656;50.096;20.014;2023-04-19T20:02:08;99161.33;;;11.19;66.73
33286;BME280;19656;50.096;20.014;2023-04-19T20:07:13;99165.14;;;11.20;66.71
33286;BME280;19656;50.096;20.014;2023-04-19T20:12:19;99167.98;;;11.14;66.95
33286;BME280;19656;50.096;20.014;2023-04-19T20:17:23;99169.23;;;11.09;67.26
33286;BME280;19656;50.096;20.014;2023-04-19T20:22:28;99170.00;;;11.07;67.29
33286;BME280;19656;50.096;20.014;2023-04-19T20:27:31;99167.61;;;11.03;67.32
33286;BME280;19656;50.096;20.014;2023-04-19T20:32:36;99167.77;;;11.06;67.62
33286;BME280;19656;50.096;20.014;2023-04-19T20:37:42;99168.02;;;11.11;67.83
33286;BME280;19656;50.096;20.014;2023-04-19T20:42:46;99164.40;;;11.12;67.78
33286;BME280;19656;50.096;20.014;2023-04-19T20:47:51;99167.20;;;11.12;68.03
33286;BME280;19656;50.096;20.014;2023-04-19T20:53:02;99165.38;;;11.13;68.19
33286;BME280;19656;50.096;20.014;2023-04-19T20:58:06;99164.48;;;11.13;68.22
33286;BME280;19656;50.096;20.014;2023-04-19T21:03:10;99166.52;;;11.12;68.57
33286;BME280;19656;50.096;20.014;2023-04-19T21:08:16;99171.00;;;11.09;68.90
33286;BME280;19656;50.096;20.014;2023-04-19T21:13:21;99170.73;;;11.04;69.35
33286;BME280;19656;50.096;20.014;2023-04-19T21:18:25;99171.05;;;11.05;69.61
33286;BME280;19656;50.096;20.014;2023-04-19T21:23:31;99175.70;;;11.07;69.89
33286;BME280;19656;50.096;20.014;2023-04-19T21:28:35;99177.85;;;11.10;70.06
33286;BME280;19656;50.096;20.014;2023-04-19T21:33:39;99178.64;;;11.11;70.31
33286;BME280;19656;50.096;20.014;2023-04-19T21:38:43;99175.40;;;11.09;70.24
33286;BME280;19656;50.096;20.014;2023-04-19T21:43:47;99172.58;;;11.06;70.22
33286;BME280;19656;50.096;20.014;2023-04-19T21:48:51;99179.20;;;11.05;70.21
33286;BME280;19656;50.096;20.014;2023-04-19T21:53:57;99174.50;;;11.04;70.33
33286;BME280;19656;50.096;20.014;2023-04-19T21:59:01;99178.98;;;10.97;70.86
33286;BME280;19656;50.096;20.014;2023-04-19T22:04:05;99176.91;;;10.99;71.13
33286;BME280;19656;50.096;20.014;2023-04-19T22:09:09;99177.01;;;11.00;71.03
33286;BME280;19656;50.096;20.014;2023-04-19T22:14:16;99181.84;;;11.03;70.95
33286;BME280;19656;50.096;20.014;2023-04-19T22:19:22;99180.44;;;11.00;70.79
33286;BME280;19656;50.096;20.014;2023-04-19T22:24:29;99183.92;;;10.92;70.96
33286;BME280;19656;50.096;20.014;2023-04-19T22:29:33;99181.39;;;10.84;71.15
33286;BME280;19656;50.096;20.014;2023-04-19T22:34:38;99179.52;;;10.83;71.35
33286;BME280;19656;50.096;20.014;2023-04-19T22:39:42;99182.86;;;10.80;71.51
33286;BME280;19656;50.096;20.014;2023-04-19T22:44:46;99177.89;;;10.86;71.54
33286;BME280;19656;50.096;20.014;2023-04-19T22:49:50;99180.39;;;10.89;71.16
33286;BME280;19656;50.096;20.014;2023-04-19T22:54:54;99176.54;;;10.85;70.87
33286;BME280;19656;50.096;20.014;2023-04-19T22:59:59;99176.23;;;10.78;70.89
33286;BME280;19656;50.096;20.014;2023-04-19T23:05:05;99173.60;;;10.69;70.93
33286;BME280;19656;50.096;20.014;2023-04-19T23:10:10;99185.46;;;10.60;71.11
33286;BME280;19656;50.096;20.014;2023-04-19T23:15:16;99184.98;;;10.54;71.14
33286;BME280;19656;50.096;20.014;2023-04-19T23:20:20;99185.98;;;10.46;71.25
33286;BME280;19656;50.096;20.014;2023-04-19T23:25:24;99190.39;;;10.37;71.41
33286;BME280;19656;50.096;20.014;2023-04-19T23:30:28;99186.31;;;10.31;71.46
33286;BME280;19656;50.096;20.014;2023-04-19T23:35:34;99178.05;;;10.30;71.52
33286;BME280;19656;50.096;20.014;2023-04-19T23:40:37;99171.27;;;10.28;71.46
33286;BME280;19656;50.096;20.014;2023-04-19T23:45:43;99167.65;;;10.26;71.49
33286;BME280;19656;50.096;20.014;2023-04-19T23:50:48;99162.75;;;10.21;71.44
33286;BME280;19656;50.096;20.014;2023-04-19T23:55:53;99156.94;;;10.14;71.54
